createdAt,value
2023-02-05T00:01:27.702Z,91.62
2023-02-05T00:06:30.295Z,91.25
2023-02-05T00:11:32.941Z,91.20
2023-02-05T00:16:35.957Z,91.35
2023-02-05T00:21:38.717Z,91.13
2023-02-05T00:26:41.808Z,90.47
2023-02-05T00:31:44.505Z,90.75
2023-02-05T00:36:47.885Z,90.21
2023-02-05T00:41:50.572Z,90.45
2023-02-05T00:46:53.429Z,91.00
2023-02-05T00:51:55.987Z,90.44
2023-02-05T00:56:59.028Z,91.02
2023-02-05T01:02:01.663Z,90.96
2023-02-05T01:07:04.250Z,90.59
2023-02-05T01:12:06.945Z,90.72
2023-02-05T01:17:09.500Z,89.88
2023-02-05T01:22:12.168Z,90.19
2023-02-05T01:27:15.236Z,90.14
2023-02-05T01:32:18.316Z,89.77
2023-02-05T01:37:22.077Z,89.88
2023-02-05T01:42:30.011Z,90.00
2023-02-05T01:47:32.574Z,90.07
2023-02-05T01:52:35.409Z,89.55
2023-02-05T01:57:38.739Z,89.07
2023-02-05T02:02:41.817Z,89.17
2023-02-05T02:07:44.764Z,88.87
2023-02-05T02:12:50.153Z,89.28
2023-02-05T02:18:18.084Z,88.69
2023-02-05T02:23:53.792Z,88.63
2023-02-05T02:29:04.181Z,88.24
2023-02-05T02:34:22.900Z,88.41
2023-02-05T02:39:57.607Z,88.67
2023-02-05T02:45:03.485Z,87.87
2023-02-05T02:50:14.091Z,88.21
2023-02-05T02:55:19.741Z,88.54
2023-02-05T03:00:27.073Z,88.06
2023-02-05T03:05:30.785Z,87.51
2023-02-05T03:10:41.176Z,87.66
2023-02-05T03:15:45.616Z,87.85
2023-02-05T03:20:57.160Z,87.90
2023-02-05T03:26:00.053Z,87.63
2023-02-05T03:31:44.717Z,87.60
2023-02-05T03:37:02.016Z,87.66
2023-02-05T03:42:48.284Z,87.83
2023-02-05T03:48:15.974Z,87.52
2023-02-05T03:53:30.844Z,87.90
2023-02-05T03:58:42.005Z,88.18
2023-02-05T04:03:44.964Z,88.21
2023-02-05T04:08:47.884Z,88.17
2023-02-05T04:13:51.531Z,88.10
2023-02-05T04:18:54.215Z,87.90
2023-02-05T04:23:57.441Z,88.44
2023-02-05T04:29:01.073Z,88.06
2023-02-05T04:34:06.655Z,88.08
2023-02-05T04:39:09.330Z,88.13
2023-02-05T04:44:11.880Z,88.02
2023-02-05T04:49:14.694Z,87.83
2023-02-05T04:54:17.465Z,87.51
2023-02-05T04:59:20.346Z,87.39
2023-02-05T05:04:23.121Z,87.47
2023-02-05T05:09:25.781Z,87.14
2023-02-05T05:14:28.860Z,86.87
2023-02-05T05:19:31.533Z,86.85
2023-02-05T05:24:34.175Z,87.13
2023-02-05T05:29:37.383Z,87.29
2023-02-05T05:34:39.969Z,87.46
2023-02-05T05:40:00.872Z,87.83
2023-02-05T05:45:03.891Z,87.18
2023-02-05T05:50:07.015Z,87.41
2023-02-05T05:55:09.652Z,86.79
2023-02-05T06:00:13.027Z,87.27
2023-02-05T06:05:15.721Z,87.11
2023-02-05T06:10:18.543Z,87.09
2023-02-05T06:15:22.159Z,86.97
2023-02-05T06:20:24.950Z,86.63
2023-02-05T06:25:27.572Z,86.28
2023-02-05T06:30:32.551Z,86.24
2023-02-05T06:35:35.509Z,85.91
2023-02-05T06:40:38.357Z,86.08
2023-02-05T06:45:40.951Z,85.14
2023-02-05T06:50:43.652Z,84.93
2023-02-05T06:55:46.310Z,85.08
2023-02-05T07:00:49.241Z,84.59
2023-02-05T07:05:51.771Z,84.02
2023-02-05T07:10:54.405Z,84.53
2023-02-05T07:15:57.509Z,83.80
2023-02-05T07:21:00.459Z,84.01
2023-02-05T07:26:12.605Z,84.29
2023-02-05T07:31:21.460Z,83.55
2023-02-05T07:36:24.106Z,83.13
2023-02-05T07:41:27.041Z,83.02
2023-02-05T07:46:29.655Z,82.65
2023-02-05T07:51:32.918Z,82.52
2023-02-05T07:56:35.539Z,82.76
2023-02-05T08:01:38.196Z,82.29
2023-02-05T08:06:40.828Z,82.18
2023-02-05T08:11:43.990Z,82.11
2023-02-05T08:16:46.633Z,82.05
2023-02-05T08:21:49.253Z,80.45
2023-02-05T08:26:51.918Z,80.03
2023-02-05T08:31:54.567Z,79.40
2023-02-05T08:36:57.846Z,78.83
2023-02-05T08:42:00.468Z,78.18
2023-02-05T08:47:03.099Z,77.77
2023-02-05T08:52:05.765Z,76.22
2023-02-05T08:57:08.668Z,75.99
2023-02-05T09:02:15.433Z,75.55
2023-02-05T09:07:18.293Z,75.75
2023-02-05T09:12:20.846Z,74.64
2023-02-05T09:17:23.537Z,72.23
2023-02-05T09:22:26.271Z,73.07
2023-02-05T09:27:28.835Z,71.97
2023-02-05T09:32:31.391Z,72.03
2023-02-05T09:37:33.991Z,71.75
2023-02-05T09:42:53.338Z,70.83
2023-02-05T09:48:08.514Z,71.08
2023-02-05T09:53:17.609Z,71.32
2023-02-05T09:58:27.183Z,71.41
2023-02-05T10:03:37.447Z,71.41
2023-02-05T10:09:09.744Z,71.42
2023-02-05T10:14:30.862Z,70.70
2023-02-05T10:19:44.154Z,71.21
2023-02-05T10:24:56.217Z,71.00
2023-02-05T10:30:20.339Z,71.32
2023-02-05T10:35:24.997Z,70.70
2023-02-05T10:40:41.043Z,70.75
2023-02-05T10:45:44.542Z,70.17
2023-02-05T10:51:15.366Z,70.46
2023-02-05T10:56:19.800Z,70.85
2023-02-05T11:01:33.696Z,70.15
2023-02-05T11:06:40.481Z,70.37
2023-02-05T11:11:44.471Z,69.75
2023-02-05T11:16:47.243Z,68.71
2023-02-05T11:21:57.368Z,69.79
2023-02-05T11:27:24.748Z,70.14
2023-02-05T11:32:36.269Z,71.47
2023-02-05T11:37:40.660Z,73.32
2023-02-05T11:42:50.385Z,74.06
2023-02-05T11:47:53.760Z,74.72
2023-02-05T11:53:08.909Z,74.63
2023-02-05T11:58:36.624Z,75.52
2023-02-05T12:03:39.821Z,76.73
2023-02-05T12:08:55.437Z,76.96
2023-02-05T12:14:16.777Z,77.23
2023-02-05T12:19:19.880Z,77.09
2023-02-05T12:24:45.298Z,77.48
2023-02-05T12:30:07.222Z,77.34
2023-02-05T12:35:12.900Z,78.02
2023-02-05T12:40:33.836Z,78.33
2023-02-05T12:45:57.962Z,78.87
2023-02-05T12:51:18.367Z,79.20
2023-02-05T12:56:35.987Z,79.65
2023-02-05T13:01:38.489Z,80.13
2023-02-05T13:06:52.497Z,80.26
2023-02-05T13:12:00.994Z,80.93
2023-02-05T13:17:12.939Z,80.57
2023-02-05T13:22:38.194Z,81.64
2023-02-05T13:28:02.239Z,81.63
2023-02-05T13:33:09.317Z,82.00
2023-02-05T13:38:14.689Z,82.57
2023-02-05T13:43:45.502Z,82.58
2023-02-05T13:49:03.220Z,82.47
2023-02-05T13:54:24.451Z,82.68
2023-02-05T13:59:39.253Z,82.72
2023-02-05T14:04:54.007Z,82.85
2023-02-05T14:10:00.880Z,83.42
2023-02-05T14:15:15.724Z,83.45
2023-02-05T14:20:24.420Z,83.84
2023-02-05T14:25:38.335Z,83.48
2023-02-05T14:30:49.089Z,83.34
2023-02-05T14:35:55.978Z,83.91
2023-02-05T14:41:10.876Z,83.55
2023-02-05T14:46:37.623Z,83.99
2023-02-05T14:51:48.487Z,84.31
2023-02-05T14:56:54.205Z,84.29
2023-02-05T15:01:57.922Z,84.46
2023-02-05T15:07:07.317Z,84.38
2023-02-05T15:12:56.610Z,84.45
2023-02-05T15:18:29.054Z,84.00
2023-02-05T15:23:42.387Z,83.63
2023-02-05T15:29:11.520Z,83.81
2023-02-05T15:34:23.268Z,83.38
2023-02-05T15:39:38.234Z,83.49
2023-02-05T15:44:43.973Z,82.98
2023-02-05T15:49:50.532Z,83.06
2023-02-05T15:54:56.845Z,82.69
2023-02-05T16:00:07.852Z,83.10
2023-02-05T16:05:19.286Z,82.91
2023-02-05T16:10:27.786Z,83.57
2023-02-05T16:16:01.362Z,83.00
2023-02-05T16:21:31.796Z,82.90
2023-02-05T16:26:43.338Z,83.24
2023-02-05T16:31:46.502Z,82.79
2023-02-05T16:36:53.180Z,83.11
2023-02-05T16:42:06.272Z,83.50
2023-02-05T16:47:18.732Z,83.34
2023-02-05T16:52:32.799Z,82.76
2023-02-05T16:57:41.499Z,83.34
2023-02-05T17:02:47.392Z,82.60
2023-02-05T17:08:02.243Z,82.92
2023-02-05T17:13:06.072Z,82.54
2023-02-05T17:18:31.539Z,82.76
2023-02-05T17:23:34.109Z,82.48
2023-02-05T17:28:43.875Z,82.66
2023-02-05T17:33:50.195Z,83.11
2023-02-05T17:38:53.692Z,82.93
2023-02-05T17:43:57.253Z,84.07
2023-02-05T17:49:01.307Z,83.21
2023-02-05T17:54:04.945Z,84.07
2023-02-05T17:59:20.668Z,84.50
2023-02-05T18:04:28.702Z,84.53
2023-02-05T18:09:31.258Z,84.62
2023-02-05T18:14:40.012Z,84.41
2023-02-05T18:19:45.362Z,84.79
2023-02-05T18:24:47.963Z,84.54
2023-02-05T18:30:03.653Z,85.16
2023-02-05T18:35:06.903Z,85.13
2023-02-05T18:40:15.181Z,84.20
2023-02-05T18:45:18.560Z,84.21
2023-02-05T18:50:27.960Z,84.03
2023-02-05T18:55:35.831Z,84.67
2023-02-05T19:00:50.098Z,84.43
2023-02-05T19:05:56.200Z,84.59
2023-02-05T19:10:59.862Z,84.30
2023-02-05T19:16:12.843Z,84.10
2023-02-05T19:21:18.112Z,83.71
2023-02-05T19:26:26.254Z,83.60
2023-02-05T19:31:34.389Z,83.46
2023-02-05T19:36:38.311Z,84.22
2023-02-05T19:42:03.473Z,83.96
2023-02-05T19:47:08.624Z,84.20
2023-02-05T19:52:11.245Z,83.83
2023-02-05T19:57:13.830Z,84.24
2023-02-05T20:02:19.449Z,84.20
2023-02-05T20:07:22.060Z,84.20
2023-02-05T20:12:24.755Z,84.83
2023-02-05T20:17:28.708Z,84.55
2023-02-05T20:22:32.069Z,84.13
2023-02-05T20:27:34.800Z,83.11
2023-02-05T20:32:37.432Z,83.87
2023-02-05T20:37:40.079Z,83.32
2023-02-05T20:42:42.719Z,83.55
2023-02-05T20:47:45.530Z,82.54
2023-02-05T20:52:48.116Z,82.78
2023-02-05T20:57:50.724Z,82.72
2023-02-05T21:02:53.413Z,82.14
2023-02-05T21:07:56.519Z,81.95
2023-02-05T21:12:59.107Z,82.17
2023-02-05T21:18:01.749Z,81.59
2023-02-05T21:23:04.360Z,81.50
2023-02-05T21:28:07.413Z,80.73
2023-02-05T21:33:10.163Z,80.95
2023-02-05T21:38:12.784Z,80.37
2023-02-05T21:43:15.386Z,80.54
2023-02-05T21:48:17.982Z,80.70
2023-02-05T21:53:20.643Z,80.41
2023-02-05T21:58:23.215Z,80.32
2023-02-05T22:03:25.817Z,80.39
2023-02-05T22:08:28.335Z,79.94
2023-02-05T22:13:33.255Z,79.78
2023-02-05T22:19:01.750Z,80.08
2023-02-05T22:24:05.795Z,79.61
2023-02-05T22:29:12.838Z,79.94
2023-02-05T22:34:15.378Z,79.96
2023-02-05T22:39:17.990Z,79.47
2023-02-05T22:44:20.549Z,78.90
2023-02-05T22:49:23.097Z,79.25
2023-02-05T22:54:25.739Z,78.99
2023-02-05T22:59:29.503Z,78.92
2023-02-05T23:04:32.021Z,78.91
2023-02-05T23:09:34.636Z,78.61
2023-02-05T23:14:37.185Z,78.93
2023-02-05T23:19:39.735Z,79.33
2023-02-05T23:24:42.440Z,79.13
2023-02-05T23:29:45.006Z,78.88
2023-02-05T23:34:47.609Z,78.87
2023-02-05T23:39:50.291Z,78.30
2023-02-05T23:44:52.806Z,78.07
2023-02-05T23:49:55.327Z,78.04
2023-02-05T23:54:57.926Z,78.16
